AAL9733 TJPS-TNCM
Flight info
| Callsign | AAL9733 |
|---|---|
| Flight time | 0h 36m |
| Altitude | 27000 |
| Route | WLFRD2 OLGAH DCT COY R760 PJM |
| Aircraft | A319/M-SDE3FGHIRWY/LB1 |
Departure
| Time | 2026-04-22 12:58 |
|---|---|
| Airport | Mercedita International Airport (TJPS) |
Arrival
| Time | 2026-04-22 13:35 |
|---|---|
| Airport | Princess Juliana International Airport (TNCM) |
| Time | Latitude | Longitude | Altitude | Speed | Heading |
|---|---|---|---|---|---|
| 2026-04-22 12:36 | 18.01003 | -66.56295 | 37 ft | 0 kts | 319° |
| 2026-04-22 12:50 | 18.01000 | -66.56292 | 37 ft | 0 kts | 319° |
| 2026-04-22 12:50 | 18.00998 | -66.56291 | 37 ft | 3 kts | 319° |
| 2026-04-22 12:51 | 18.00983 | -66.56278 | 37 ft | 3 kts | 319° |
| 2026-04-22 12:51 | 18.00969 | -66.56265 | 35 ft | 3 kts | 319° |
| 2026-04-22 12:51 | 18.00955 | -66.56252 | 35 ft | 3 kts | 319° |
| 2026-04-22 12:51 | 18.00947 | -66.56245 | 37 ft | 0 kts | 319° |
| 2026-04-22 12:54 | 18.00949 | -66.56248 | 37 ft | 2 kts | 308° |
| 2026-04-22 12:54 | 18.00951 | -66.56290 | 37 ft | 9 kts | 276° |
| 2026-04-22 12:54 | 18.00976 | -66.56379 | 36 ft | 15 kts | 288° |
| 2026-04-22 12:55 | 18.00997 | -66.56451 | 38 ft | 16 kts | 288° |
| 2026-04-22 12:55 | 18.01048 | -66.56612 | 36 ft | 19 kts | 288° |
| 2026-04-22 12:55 | 18.01090 | -66.56748 | 36 ft | 20 kts | 287° |
| 2026-04-22 12:55 | 18.01135 | -66.56896 | 35 ft | 22 kts | 288° |
| 2026-04-22 12:56 | 18.01183 | -66.57049 | 37 ft | 18 kts | 287° |
| 2026-04-22 12:56 | 18.01213 | -66.57146 | 37 ft | 10 kts | 288° |
| 2026-04-22 12:56 | 18.01213 | -66.57206 | 36 ft | 8 kts | 220° |
| 2026-04-22 12:56 | 18.01151 | -66.57234 | 36 ft | 12 kts | 220° |
| 2026-04-22 12:57 | 18.01149 | -66.57327 | 34 ft | 15 kts | 289° |
| 2026-04-22 12:57 | 18.01188 | -66.57437 | 35 ft | 14 kts | 296° |
| 2026-04-22 12:57 | 18.01233 | -66.57499 | 35 ft | 8 kts | 294° |
| 2026-04-22 12:57 | 18.01214 | -66.57525 | 35 ft | 3 kts | 163° |
| 2026-04-22 12:58 | 18.01199 | -66.57488 | 35 ft | 9 kts | 108° |
| 2026-04-22 12:58 | 18.01102 | -66.57176 | 35 ft | 96 kts | 108° |
| 2026-04-22 12:58 | 18.00803 | -66.56221 | 292 ft | 158 kts | 107° |
| 2026-04-22 12:58 | 18.00468 | -66.55132 | 1415 ft | 155 kts | 107° |
| 2026-04-22 12:59 | 18.00134 | -66.54029 | 2349 ft | 169 kts | 105° |
| 2026-04-22 12:59 | 17.99755 | -66.52779 | 3063 ft | 191 kts | 106° |
| 2026-04-22 12:59 | 17.99329 | -66.51386 | 3761 ft | 216 kts | 106° |
| 2026-04-22 12:59 | 17.98841 | -66.49800 | 4515 ft | 241 kts | 107° |
| 2026-04-22 13:00 | 17.98299 | -66.48049 | 5293 ft | 262 kts | 107° |
| 2026-04-22 13:00 | 17.97720 | -66.46188 | 6333 ft | 272 kts | 107° |
| 2026-04-22 13:00 | 17.97081 | -66.44291 | 7369 ft | 280 kts | 112° |
| 2026-04-22 13:00 | 17.96047 | -66.42533 | 8420 ft | 288 kts | 128° |
| 2026-04-22 13:01 | 17.94670 | -66.40974 | 9477 ft | 294 kts | 133° |
| 2026-04-22 13:01 | 17.93239 | -66.39398 | 10369 ft | 305 kts | 133° |
| 2026-04-22 13:01 | 17.91679 | -66.37764 | 10816 ft | 330 kts | 138° |
| 2026-04-22 13:01 | 17.89902 | -66.36140 | 11207 ft | 355 kts | 139° |
| 2026-04-22 13:02 | 17.88105 | -66.34274 | 11765 ft | 370 kts | 129° |
| 2026-04-22 13:02 | 17.86649 | -66.32028 | 12557 ft | 376 kts | 118° |
| 2026-04-22 13:02 | 17.85622 | -66.29484 | 13374 ft | 382 kts | 106° |
| 2026-04-22 13:02 | 17.85042 | -66.26744 | 14155 ft | 387 kts | 100° |
| 2026-04-22 13:03 | 17.84530 | -66.23951 | 14875 ft | 392 kts | 100° |
| 2026-04-22 13:03 | 17.84006 | -66.21124 | 15579 ft | 398 kts | 101° |
| 2026-04-22 13:03 | 17.83468 | -66.18251 | 16270 ft | 404 kts | 101° |
| 2026-04-22 13:03 | 17.82921 | -66.15338 | 16959 ft | 410 kts | 101° |
| 2026-04-22 13:04 | 17.82364 | -66.12390 | 17646 ft | 415 kts | 101° |
| 2026-04-22 13:04 | 17.81932 | -66.09370 | 18312 ft | 422 kts | 94° |
| 2026-04-22 13:04 | 17.81755 | -66.06327 | 18883 ft | 427 kts | 93° |
| 2026-04-22 13:04 | 17.81578 | -66.03192 | 19466 ft | 433 kts | 93° |
| 2026-04-22 13:05 | 17.81400 | -66.00017 | 20050 ft | 438 kts | 93° |
| 2026-04-22 13:05 | 17.81220 | -65.96808 | 20616 ft | 444 kts | 93° |
| 2026-04-22 13:05 | 17.81036 | -65.93555 | 21176 ft | 449 kts | 94° |
| 2026-04-22 13:05 | 17.80845 | -65.90267 | 21715 ft | 454 kts | 94° |
| 2026-04-22 13:06 | 17.80646 | -65.86940 | 22252 ft | 459 kts | 94° |
| 2026-04-22 13:06 | 17.80443 | -65.83581 | 22776 ft | 464 kts | 94° |
| 2026-04-22 13:06 | 17.80237 | -65.80186 | 23291 ft | 469 kts | 94° |
| 2026-04-22 13:06 | 17.80031 | -65.76750 | 23765 ft | 474 kts | 94° |
| 2026-04-22 13:07 | 17.79832 | -65.73334 | 24189 ft | 478 kts | 94° |
| 2026-04-22 13:07 | 17.79632 | -65.69846 | 24619 ft | 481 kts | 94° |
| 2026-04-22 13:07 | 17.79429 | -65.66328 | 24943 ft | 484 kts | 94° |
| 2026-04-22 13:07 | 17.79222 | -65.62791 | 25044 ft | 488 kts | 94° |
| 2026-04-22 13:08 | 17.79008 | -65.59198 | 25070 ft | 500 kts | 94° |
| 2026-04-22 13:08 | 17.78785 | -65.55531 | 25068 ft | 505 kts | 94° |
| 2026-04-22 13:08 | 17.78560 | -65.51853 | 25072 ft | 506 kts | 94° |
| 2026-04-22 13:08 | 17.78333 | -65.48169 | 25069 ft | 506 kts | 94° |
| 2026-04-22 13:09 | 17.78108 | -65.44480 | 25071 ft | 506 kts | 94° |
| 2026-04-22 13:09 | 17.77885 | -65.40792 | 25071 ft | 507 kts | 94° |
| 2026-04-22 13:09 | 17.77661 | -65.37099 | 25069 ft | 507 kts | 94° |
| 2026-04-22 13:09 | 17.77438 | -65.33410 | 25071 ft | 507 kts | 94° |
| 2026-04-22 13:10 | 17.77216 | -65.29773 | 25072 ft | 507 kts | 94° |
| 2026-04-22 13:10 | 17.76989 | -65.26092 | 25067 ft | 506 kts | 94° |
| 2026-04-22 13:10 | 17.76759 | -65.22401 | 25065 ft | 506 kts | 94° |
| 2026-04-22 13:10 | 17.76604 | -65.19911 | 25064 ft | 506 kts | 94° |
| 2026-04-22 13:11 | 17.76497 | -65.17778 | 25064 ft | 505 kts | 91° |
| 2026-04-22 13:11 | 17.76372 | -65.14086 | 25061 ft | 506 kts | 93° |
| 2026-04-22 13:11 | 17.76160 | -65.10408 | 25059 ft | 506 kts | 94° |
| 2026-04-22 13:12 | 17.75891 | -65.06730 | 25060 ft | 506 kts | 95° |
| 2026-04-22 13:12 | 17.75603 | -65.03054 | 25057 ft | 506 kts | 95° |
| 2026-04-22 13:12 | 17.75323 | -64.99377 | 25058 ft | 506 kts | 95° |
| 2026-04-22 13:12 | 17.75060 | -64.95695 | 25058 ft | 506 kts | 94° |
| 2026-04-22 13:13 | 17.74821 | -64.92069 | 25058 ft | 506 kts | 94° |
| 2026-04-22 13:13 | 17.74592 | -64.88384 | 25046 ft | 505 kts | 94° |
| 2026-04-22 13:13 | 17.74374 | -64.84761 | 24826 ft | 488 kts | 94° |
| 2026-04-22 13:13 | 17.74166 | -64.81273 | 24601 ft | 471 kts | 94° |
| 2026-04-22 13:14 | 17.73959 | -64.77895 | 24381 ft | 457 kts | 94° |
| 2026-04-22 13:14 | 17.73751 | -64.74598 | 24159 ft | 450 kts | 94° |
| 2026-04-22 13:14 | 17.73602 | -64.71340 | 23945 ft | 447 kts | 89° |
| 2026-04-22 13:14 | 17.73855 | -64.68096 | 23724 ft | 444 kts | 80° |
| 2026-04-22 13:15 | 17.74247 | -64.65998 | 23567 ft | 443 kts | 77° |
| 2026-04-22 13:15 | 17.74873 | -64.62842 | 23302 ft | 441 kts | 77° |
| 2026-04-22 13:15 | 17.75490 | -64.59700 | 23043 ft | 439 kts | 77° |
| 2026-04-22 13:15 | 17.76100 | -64.56573 | 22784 ft | 436 kts | 77° |
| 2026-04-22 13:16 | 17.76703 | -64.53465 | 22502 ft | 433 kts | 77° |
| 2026-04-22 13:16 | 17.77298 | -64.50384 | 22055 ft | 429 kts | 77° |
| 2026-04-22 13:16 | 17.77887 | -64.47331 | 21607 ft | 425 kts | 77° |
| 2026-04-22 13:16 | 17.78472 | -64.44312 | 21167 ft | 421 kts | 77° |
| 2026-04-22 13:17 | 17.79052 | -64.41325 | 20726 ft | 417 kts | 77° |
| 2026-04-22 13:17 | 17.79629 | -64.38354 | 20293 ft | 413 kts | 77° |
| 2026-04-22 13:17 | 17.80203 | -64.35422 | 19863 ft | 409 kts | 77° |
| 2026-04-22 13:17 | 17.80773 | -64.32511 | 19431 ft | 405 kts | 77° |
| 2026-04-22 13:18 | 17.81325 | -64.29674 | 19014 ft | 401 kts | 78° |
| 2026-04-22 13:18 | 17.81875 | -64.26819 | 18599 ft | 397 kts | 78° |
| 2026-04-22 13:18 | 17.82418 | -64.23990 | 18156 ft | 393 kts | 78° |
| 2026-04-22 13:18 | 17.82958 | -64.21190 | 17695 ft | 390 kts | 78° |
| 2026-04-22 13:19 | 17.83492 | -64.18419 | 17241 ft | 385 kts | 78° |
| 2026-04-22 13:19 | 17.84021 | -64.15677 | 16801 ft | 382 kts | 78° |
| 2026-04-22 13:19 | 17.84543 | -64.12959 | 16377 ft | 378 kts | 78° |
| 2026-04-22 13:19 | 17.85060 | -64.10271 | 15952 ft | 374 kts | 78° |
| 2026-04-22 13:20 | 17.85574 | -64.07607 | 15534 ft | 370 kts | 78° |
| 2026-04-22 13:20 | 17.86081 | -64.04967 | 15125 ft | 367 kts | 78° |
| 2026-04-22 13:20 | 17.86582 | -64.02357 | 14715 ft | 364 kts | 78° |
| 2026-04-22 13:20 | 17.87073 | -63.99799 | 14315 ft | 361 kts | 77° |
| 2026-04-22 13:21 | 17.87567 | -63.97229 | 13918 ft | 357 kts | 77° |
| 2026-04-22 13:21 | 17.88058 | -63.94682 | 13487 ft | 354 kts | 77° |
| 2026-04-22 13:21 | 17.88543 | -63.92160 | 13035 ft | 350 kts | 77° |
| 2026-04-22 13:21 | 17.89019 | -63.89673 | 12514 ft | 346 kts | 77° |
| 2026-04-22 13:22 | 17.89488 | -63.87210 | 11973 ft | 342 kts | 77° |
| 2026-04-22 13:22 | 17.89950 | -63.84777 | 11412 ft | 338 kts | 77° |
| 2026-04-22 13:22 | 17.90405 | -63.82379 | 10890 ft | 333 kts | 77° |
| 2026-04-22 13:22 | 17.90856 | -63.80007 | 10401 ft | 328 kts | 77° |
| 2026-04-22 13:23 | 17.91290 | -63.77722 | 10284 ft | 310 kts | 77° |
| 2026-04-22 13:23 | 17.91701 | -63.75560 | 10119 ft | 296 kts | 77° |
| 2026-04-22 13:23 | 17.92105 | -63.73461 | 9733 ft | 290 kts | 77° |
| 2026-04-22 13:23 | 17.92500 | -63.71400 | 9266 ft | 287 kts | 77° |
| 2026-04-22 13:24 | 17.92887 | -63.69380 | 8796 ft | 284 kts | 77° |
| 2026-04-22 13:24 | 17.93274 | -63.67354 | 8328 ft | 282 kts | 77° |
| 2026-04-22 13:24 | 17.93665 | -63.65344 | 7872 ft | 279 kts | 76° |
| 2026-04-22 13:24 | 17.94082 | -63.63367 | 7414 ft | 276 kts | 76° |
| 2026-04-22 13:25 | 17.94511 | -63.61411 | 6958 ft | 274 kts | 75° |
| 2026-04-22 13:25 | 17.94941 | -63.59470 | 6542 ft | 272 kts | 76° |
| 2026-04-22 13:25 | 17.95362 | -63.57554 | 6284 ft | 266 kts | 76° |
| 2026-04-22 13:25 | 17.95768 | -63.55695 | 6060 ft | 257 kts | 76° |
| 2026-04-22 13:26 | 17.96132 | -63.54020 | 5856 ft | 250 kts | 76° |
| 2026-04-22 13:26 | 17.96515 | -63.52252 | 5666 ft | 241 kts | 76° |
| 2026-04-22 13:26 | 17.96874 | -63.50583 | 5466 ft | 234 kts | 76° |
| 2026-04-22 13:26 | 17.97229 | -63.48937 | 5271 ft | 228 kts | 76° |
| 2026-04-22 13:27 | 17.97573 | -63.47342 | 5074 ft | 221 kts | 76° |
| 2026-04-22 13:27 | 17.97908 | -63.45794 | 4921 ft | 214 kts | 76° |
| 2026-04-22 13:27 | 17.98235 | -63.44289 | 4719 ft | 209 kts | 76° |
| 2026-04-22 13:27 | 17.98554 | -63.42815 | 4530 ft | 205 kts | 77° |
| 2026-04-22 13:28 | 17.98871 | -63.41341 | 4339 ft | 208 kts | 77° |
| 2026-04-22 13:28 | 17.99189 | -63.39860 | 4148 ft | 208 kts | 77° |
| 2026-04-22 13:28 | 17.99507 | -63.38377 | 3957 ft | 207 kts | 77° |
| 2026-04-22 13:28 | 17.99824 | -63.36902 | 3764 ft | 207 kts | 77° |
| 2026-04-22 13:29 | 18.00136 | -63.35454 | 3582 ft | 205 kts | 77° |
| 2026-04-22 13:29 | 18.00449 | -63.34008 | 3403 ft | 201 kts | 77° |
| 2026-04-22 13:29 | 18.00755 | -63.32586 | 3215 ft | 198 kts | 77° |
| 2026-04-22 13:29 | 18.01054 | -63.31191 | 3034 ft | 194 kts | 77° |
| 2026-04-22 13:30 | 18.01348 | -63.29818 | 2857 ft | 192 kts | 77° |
| 2026-04-22 13:30 | 18.01601 | -63.28451 | 2687 ft | 189 kts | 80° |
| 2026-04-22 13:30 | 18.01801 | -63.27096 | 2513 ft | 187 kts | 81° |
| 2026-04-22 13:30 | 18.01988 | -63.25757 | 2341 ft | 185 kts | 81° |
| 2026-04-22 13:31 | 18.02166 | -63.24458 | 2170 ft | 173 kts | 81° |
| 2026-04-22 13:31 | 18.02330 | -63.23286 | 2019 ft | 157 kts | 81° |
| 2026-04-22 13:31 | 18.02483 | -63.22204 | 1890 ft | 141 kts | 81° |
| 2026-04-22 13:31 | 18.02620 | -63.21242 | 1766 ft | 127 kts | 80° |
| 2026-04-22 13:32 | 18.02747 | -63.20341 | 1647 ft | 124 kts | 81° |
| 2026-04-22 13:32 | 18.02872 | -63.19456 | 1479 ft | 121 kts | 80° |
| 2026-04-22 13:32 | 18.02993 | -63.18587 | 1307 ft | 119 kts | 81° |
| 2026-04-22 13:32 | 18.03116 | -63.17726 | 1120 ft | 119 kts | 79° |
| 2026-04-22 13:33 | 18.03227 | -63.16869 | 958 ft | 118 kts | 82° |
| 2026-04-22 13:33 | 18.03348 | -63.16013 | 821 ft | 119 kts | 78° |
| 2026-04-22 13:33 | 18.03474 | -63.15160 | 692 ft | 119 kts | 80° |
| 2026-04-22 13:33 | 18.03599 | -63.14315 | 544 ft | 119 kts | 78° |
| 2026-04-22 13:34 | 18.03725 | -63.13459 | 345 ft | 118 kts | 80° |
| 2026-04-22 13:34 | 18.03850 | -63.12607 | 198 ft | 118 kts | 79° |
| 2026-04-22 13:34 | 18.03966 | -63.11761 | 33 ft | 112 kts | 81° |
| 2026-04-22 13:34 | 18.04062 | -63.11112 | 28 ft | 64 kts | 81° |
| 2026-04-22 13:35 | 18.04094 | -63.10841 | 28 ft | 15 kts | 94° |
| 2026-04-22 13:35 | 18.04102 | -63.10804 | 28 ft | 2 kts | 9° |
| 2026-04-22 13:35 | 18.04107 | -63.10837 | 28 ft | 10 kts | 263° |
| 2026-04-22 13:35 | 18.04088 | -63.10922 | 28 ft | 13 kts | 260° |
| 2026-04-22 13:36 | 18.04073 | -63.11025 | 28 ft | 16 kts | 261° |
| 2026-04-22 13:36 | 18.04053 | -63.11167 | 28 ft | 22 kts | 261° |
| 2026-04-22 13:36 | 18.04061 | -63.11274 | 27 ft | 11 kts | 309° |
| 2026-04-22 13:36 | 18.04133 | -63.11298 | 28 ft | 12 kts | 351° |
| 2026-04-22 13:37 | 18.04207 | -63.11311 | 29 ft | 8 kts | 350° |
| 2026-04-22 13:37 | 18.04240 | -63.11367 | 29 ft | 13 kts | 270° |
| 2026-04-22 13:37 | 18.04226 | -63.11453 | 29 ft | 12 kts | 257° |
| 2026-04-22 13:37 | 18.04190 | -63.11519 | 29 ft | 8 kts | 242° |
| 2026-04-22 13:38 | 18.04205 | -63.11564 | 29 ft | 5 kts | 320° |
| 2026-04-22 13:38 | 18.04226 | -63.11582 | 29 ft | 0 kts | 321° |